Time;durP1;ratioP1;P1;durP2;ratioP2;P2;SDS_P1;SDS_P2;PMS_P1;PMS_P2;Temp;Humidity;BMP_temperature;BMP_pressure;BME280_temperature;BME280_humidity;BME280_pressure;Samples;Min_cycle;Max_cycle;Signal;HPM_P1;HPM_P2
2023/01/08 00:02:24;;;;;;;419.63;199.45;;;1.60;99.90;;;;;;5054601;28;20029;-73
2023/01/08 00:04:50;;;;;;;419.02;192.25;;;1.60;99.90;;;;;;5054261;28;20083;-73
2023/01/08 00:07:16;;;;;;;402.90;187.68;;;1.40;99.90;;;;;;5054289;28;20036;-73
2023/01/08 00:09:42;;;;;;;431.05;202.00;;;1.30;99.90;;;;;;5054569;28;20032;-73
2023/01/08 00:12:08;;;;;;;427.70;201.77;;;1.10;99.90;;;;;;5054135;28;20107;-73
2023/01/08 00:14:34;;;;;;;403.38;188.80;;;1.10;99.90;;;;;;5054528;28;20506;-74
2023/01/08 00:17:01;;;;;;;404.63;195.07;;;1.20;99.90;;;;;;5054020;28;20021;-73
2023/01/08 00:19:28;;;;;;;412.98;198.95;;;1.10;99.90;;;;;;5041279;28;20037;-73
2023/01/08 00:21:54;;;;;;;384.48;184.80;;;0.90;99.90;;;;;;5034370;28;20357;-73
2023/01/08 00:24:20;;;;;;;416.67;196.48;;;0.90;99.90;;;;;;5034375;28;20025;-73
2023/01/08 00:26:46;;;;;;;439.52;206.88;;;0.90;99.90;;;;;;5034150;28;20037;-73
2023/01/08 00:29:12;;;;;;;454.50;212.70;;;1.00;99.90;;;;;;5033054;28;20372;-73
2023/01/08 00:31:38;;;;;;;471.17;219.02;;;1.00;99.90;;;;;;5048899;28;20025;-73
2023/01/08 00:34:03;;;;;;;428.88;203.07;;;0.90;99.90;;;;;;5054172;28;20025;-73
2023/01/08 00:36:29;;;;;;;453.23;209.13;;;1.00;99.90;;;;;;5054131;28;20471;-73
2023/01/08 00:38:57;;;;;;;421.75;194.02;;;1.00;99.90;;;;;;5053969;28;20028;-73
2023/01/08 00:41:23;;;;;;;401.02;186.65;;;1.00;99.90;;;;;;5054070;28;20029;-73
2023/01/08 00:43:49;;;;;;;417.33;196.57;;;1.00;99.90;;;;;;5054139;28;20204;-73
2023/01/08 00:46:15;;;;;;;426.60;194.70;;;0.90;99.90;;;;;;5053888;28;20094;-73
2023/01/08 00:48:41;;;;;;;408.50;196.82;;;0.80;99.90;;;;;;5054007;28;20568;-73
2023/01/08 00:51:08;;;;;;;413.58;196.48;;;0.80;99.90;;;;;;5053963;28;20038;-73
2023/01/08 00:53:35;;;;;;;447.25;208.98;;;0.80;99.90;;;;;;5053907;28;20108;-73
2023/01/08 00:56:03;;;;;;;441.27;204.63;;;0.80;99.90;;;;;;5054004;28;20033;-73
2023/01/08 00:58:29;;;;;;;421.77;192.48;;;0.90;99.90;;;;;;5054022;28;20033;-73
2023/01/08 01:00:55;;;;;;;425.77;197.50;;;1.00;99.90;;;;;;5053631;28;20151;-73
2023/01/08 01:03:21;;;;;;;438.35;199.77;;;1.10;99.90;;;;;;5054278;28;20032;-73
2023/01/08 01:05:47;;;;;;;426.52;194.85;;;1.20;99.90;;;;;;5053789;28;20029;-72
2023/01/08 01:08:14;;;;;;;425.55;197.68;;;1.20;99.90;;;;;;5053662;28;20076;-73
2023/01/08 01:10:41;;;;;;;471.40;215.95;;;1.10;99.90;;;;;;5053663;28;20021;-73
2023/01/08 01:13:07;;;;;;;433.23;198.85;;;1.00;99.90;;;;;;5053777;28;20049;-73
2023/01/08 01:15:33;;;;;;;401.83;183.07;;;0.90;99.90;;;;;;5053687;28;20529;-73
2023/01/08 01:17:58;;;;;;;395.65;181.32;;;0.90;99.90;;;;;;5053083;28;20037;-73
2023/01/08 01:20:24;;;;;;;505.67;201.60;;;0.80;99.90;;;;;;5033852;28;20025;-73
2023/01/08 01:22:50;;;;;;;536.67;225.20;;;0.80;99.90;;;;;;5033712;28;20021;-73
2023/01/08 01:25:16;;;;;;;532.55;215.93;;;0.70;99.90;;;;;;5033934;28;20433;-73
2023/01/08 01:27:42;;;;;;;518.67;221.50;;;0.70;99.90;;;;;;5035201;28;20060;-73
2023/01/08 01:30:09;;;;;;;562.45;236.45;;;0.70;99.90;;;;;;5039576;28;20065;-73
2023/01/08 01:32:35;;;;;;;588.25;265.23;;;0.70;99.90;;;;;;5057252;28;20186;-73
2023/01/08 01:35:01;;;;;;;550.80;245.05;;;0.60;99.90;;;;;;5057203;28;20509;-73
2023/01/08 01:37:27;;;;;;;533.75;228.02;;;0.70;99.90;;;;;;5057018;28;20029;-73
2023/01/08 01:39:55;;;;;;;535.28;236.48;;;0.70;99.90;;;;;;5057148;28;20036;-73
2023/01/08 01:42:39;;;;;;;550.15;233.13;;;0.80;99.90;;;;;;5057178;28;20075;-73
2023/01/08 01:45:29;;;;;;;576.60;235.68;;;1.00;99.90;;;;;;5056959;28;20071;-73
2023/01/08 01:48:01;;;;;;;554.15;237.27;;;1.00;99.90;;;;;;5056930;28;20025;-73
2023/01/08 01:50:34;;;;;;;561.17;243.85;;;0.80;99.90;;;;;;5056884;28;20040;-73
2023/01/08 01:53:16;;;;;;;536.17;230.50;;;0.70;99.90;;;;;;5056822;28;20075;-73
2023/01/08 01:55:44;;;;;;;543.30;237.90;;;0.70;99.90;;;;;;5056821;28;20108;-73
2023/01/08 01:58:28;;;;;;;530.15;241.73;;;0.70;99.90;;;;;;5056594;28;20040;-73
2023/01/08 02:00:57;;;;;;;476.80;217.50;;;0.60;99.90;;;;;;5056734;28;20033;-73
2023/01/08 02:03:27;;;;;;;570.67;241.75;;;0.60;99.90;;;;;;5056574;28;20047;-73
2023/01/08 02:05:55;;;;;;;510.63;202.18;;;0.80;99.90;;;;;;5056427;28;20091;-73
2023/01/08 02:08:33;;;;;;;482.75;208.55;;;0.70;99.90;;;;;;5056441;28;20073;-73
2023/01/08 02:11:10;;;;;;;454.63;198.70;;;0.70;99.90;;;;;;5056428;28;20032;-73
2023/01/08 02:13:39;;;;;;;459.52;208.02;;;0.60;99.90;;;;;;5056491;28;20439;-73
2023/01/08 02:16:20;;;;;;;422.42;196.07;;;0.60;99.90;;;;;;5056518;28;20056;-73
2023/01/08 02:18:59;;;;;;;420.98;195.68;;;0.60;99.90;;;;;;5049309;28;20037;-73
2023/01/08 02:21:46;;;;;;;408.63;181.60;;;0.50;99.90;;;;;;5036372;28;20037;-73
2023/01/08 02:24:28;;;;;;;434.45;193.38;;;0.50;99.90;;;;;;5036268;28;20033;-73
2023/01/08 02:26:56;;;;;;;403.50;174.23;;;0.50;99.90;;;;;;5036200;28;20057;-73
2023/01/08 02:29:27;;;;;;;421.80;195.00;;;0.40;99.90;;;;;;5036277;28;20025;-73
2023/01/08 02:31:54;;;;;;;431.50;193.32;;;0.40;99.90;;;;;;5053135;28;20028;-73
2023/01/08 02:34:20;;;;;;;371.50;165.88;;;0.50;99.90;;;;;;5055974;28;20031;-73
2023/01/08 02:36:54;;;;;;;383.98;172.98;;;0.50;99.90;;;;;;5056056;28;20453;-73
2023/01/08 02:39:44;;;;;;;365.40;164.48;;;0.50;99.90;;;;;;5055980;28;20487;-73
2023/01/08 02:42:26;;;;;;;380.55;165.02;;;0.50;99.90;;;;;;5055933;28;20041;-73
2023/01/08 02:44:52;;;;;;;442.13;178.13;;;0.50;99.90;;;;;;5055958;28;20486;-73
2023/01/08 02:47:32;;;;;;;554.80;226.07;;;0.60;99.90;;;;;;5055638;28;20033;-73
2023/01/08 02:50:13;;;;;;;452.50;186.63;;;0.80;99.90;;;;;;5055830;28;20608;-73
2023/01/08 02:52:51;;;;;;;473.70;191.00;;;0.80;99.90;;;;;;5055735;28;20552;-73
2023/01/08 02:55:18;;;;;;;455.02;176.38;;;0.50;99.90;;;;;;5055539;28;20108;-73
2023/01/08 02:57:45;;;;;;;460.30;185.65;;;0.40;99.90;;;;;;5055745;28;20142;-73
2023/01/08 03:00:12;;;;;;;423.02;173.93;;;0.40;99.90;;;;;;5055531;28;20032;-73
2023/01/08 03:02:40;;;;;;;426.63;178.80;;;0.30;99.90;;;;;;5055441;28;20032;-73
2023/01/08 03:05:23;;;;;;;434.55;177.00;;;0.30;99.90;;;;;;5055430;28;20060;-73
2023/01/08 03:07:49;;;;;;;430.50;173.20;;;0.30;99.90;;;;;;5055218;28;20049;-73
2023/01/08 03:10:17;;;;;;;423.17;175.55;;;0.20;99.90;;;;;;5055284;28;20036;-73
2023/01/08 03:12:54;;;;;;;442.52;185.20;;;0.20;99.90;;;;;;5055550;28;20056;-73
2023/01/08 03:15:30;;;;;;;433.58;179.93;;;0.20;99.90;;;;;;5055217;28;20360;-73
2023/01/08 03:18:01;;;;;;;388.35;167.85;;;0.20;99.90;;;;;;5054846;28;20451;-73
2023/01/08 03:20:27;;;;;;;418.58;166.02;;;0.20;99.90;;;;;;5035017;28;20038;-73
2023/01/08 03:22:55;;;;;;;383.27;160.68;;;0.40;99.90;;;;;;5035122;28;20036;-73
2023/01/08 03:25:25;;;;;;;394.90;166.30;;;0.40;99.90;;;;;;5035316;28;20069;-73
2023/01/08 03:27:59;;;;;;;396.00;166.23;;;0.20;99.90;;;;;;5035378;28;20037;-73
2023/01/08 03:30:27;;;;;;;391.23;161.35;;;0.10;99.90;;;;;;5039593;28;20032;-73
2023/01/08 03:32:56;;;;;;;393.52;166.60;;;0.00;99.90;;;;;;5054781;28;20028;-73
2023/01/08 03:35:25;;;;;;;411.00;173.40;;;-0.10;99.90;;;;;;5055023;28;20029;-73
2023/01/08 03:38:02;;;;;;;377.65;161.13;;;0.00;99.90;;;;;;5054656;28;20486;-73
2023/01/08 03:40:37;;;;;;;397.30;177.02;;;0.00;99.90;;;;;;5054859;28;20083;-73
2023/01/08 03:43:03;;;;;;;347.98;159.02;;;0.00;99.90;;;;;;5054832;28;20489;-73
2023/01/08 03:45:31;;;;;;;346.05;158.68;;;0.00;99.90;;;;;;5054610;28;20021;-73
2023/01/08 03:47:58;;;;;;;331.15;147.05;;;0.00;99.90;;;;;;5054636;28;20044;-73
2023/01/08 03:50:27;;;;;;;339.23;151.57;;;-0.10;99.90;;;;;;5054321;28;20032;-73
2023/01/08 03:52:53;;;;;;;367.00;165.43;;;-0.10;99.90;;;;;;5054609;28;20036;-73
2023/01/08 03:55:19;;;;;;;338.20;151.13;;;-0.10;99.90;;;;;;5054628;28;20169;-73
2023/01/08 03:57:45;;;;;;;320.67;141.75;;;0.00;99.90;;;;;;5036589;28;20108;-73
2023/01/08 04:00:12;;;;;;;327.30;145.52;;;-0.10;99.90;;;;;;5053061;28;20526;-73
2023/01/08 04:02:41;;;;;;;312.65;140.05;;;-0.10;99.90;;;;;;5053287;28;20063;-73
2023/01/08 04:05:07;;;;;;;316.27;146.88;;;-0.10;99.90;;;;;;5054511;28;20382;-73
2023/01/08 04:07:33;;;;;;;337.60;143.45;;;-0.10;99.90;;;;;;5054200;28;20041;-73
2023/01/08 04:09:59;;;;;;;329.05;145.15;;;-0.10;99.90;;;;;;5054430;28;20025;-73
2023/01/08 04:12:25;;;;;;;311.73;136.70;;;-0.10;99.90;;;;;;5054106;28;20593;-73
2023/01/08 04:14:51;;;;;;;317.17;138.35;;;-0.20;99.90;;;;;;5054136;28;20074;-73
2023/01/08 04:17:17;;;;;;;288.13;130.32;;;-0.20;99.90;;;;;;5054331;28;20032;-73
2023/01/08 04:19:43;;;;;;;326.30;140.40;;;-0.20;99.90;;;;;;5039336;28;20124;-73
2023/01/08 04:22:10;;;;;;;396.17;165.85;;;-0.20;99.90;;;;;;5033878;28;20052;-73
2023/01/08 04:24:36;;;;;;;345.85;143.07;;;0.00;99.90;;;;;;5034467;28;20140;-73
2023/01/08 04:27:02;;;;;;;335.65;139.75;;;0.10;99.90;;;;;;5034090;28;20036;-73
2023/01/08 04:29:28;;;;;;;339.27;144.05;;;-0.10;99.90;;;;;;5034228;28;20501;-73
2023/01/08 04:31:54;;;;;;;322.38;129.02;;;-0.20;99.90;;;;;;5051305;28;20025;-73
2023/01/08 04:34:20;;;;;;;310.52;134.35;;;0.00;99.90;;;;;;5054038;28;20025;-73
2023/01/08 04:36:46;;;;;;;308.40;132.80;;;-0.10;99.90;;;;;;5036265;28;20032;-73
2023/01/08 04:39:12;;;;;;;272.83;123.72;;;0.00;99.90;;;;;;5054134;28;20037;-73
2023/01/08 04:41:38;;;;;;;264.02;120.38;;;0.10;99.90;;;;;;5053933;28;20036;-73
2023/01/08 04:44:04;;;;;;;253.18;116.57;;;0.20;99.90;;;;;;5054027;28;20033;-73
2023/01/08 04:46:30;;;;;;;256.77;115.57;;;0.20;99.90;;;;;;5054143;28;20063;-73
2023/01/08 04:48:56;;;;;;;243.85;115.53;;;0.10;99.90;;;;;;5053922;28;20116;-73
2023/01/08 04:51:22;;;;;;;246.27;111.68;;;0.00;99.90;;;;;;5054167;28;20029;-73
2023/01/08 04:53:48;;;;;;;253.77;118.05;;;0.00;99.90;;;;;;5054137;28;20072;-73
2023/01/08 04:56:14;;;;;;;249.10;110.18;;;-0.20;99.90;;;;;;5053878;28;20459;-73
2023/01/08 04:58:40;;;;;;;251.38;113.43;;;-0.20;99.90;;;;;;5019645;28;20037;-73
2023/01/08 05:01:12;;;;;;;246.35;113.53;;;-0.20;99.90;;;;;;5052758;28;20413;-73
2023/01/08 05:03:37;;;;;;;217.60;101.03;;;0.00;99.90;;;;;;5056865;28;20033;-73
2023/01/08 05:06:04;;;;;;;235.07;109.03;;;-0.10;99.90;;;;;;5057776;28;20463;-73
2023/01/08 05:08:30;;;;;;;276.25;121.40;;;-0.30;99.90;;;;;;5056348;28;20124;-73
2023/01/08 05:10:59;;;;;;;241.55;112.72;;;-0.30;99.90;;;;;;5057385;28;20139;-73
2023/01/08 05:13:25;;;;;;;250.02;115.28;;;-0.30;99.90;;;;;;5057732;28;20029;-73
2023/01/08 05:15:51;;;;;;;236.65;109.22;;;-0.30;99.90;;;;;;5057627;28;20384;-73
2023/01/08 05:18:17;;;;;;;273.35;120.22;;;-0.20;99.90;;;;;;5054314;28;20033;-73
2023/01/08 05:20:43;;;;;;;326.23;134.27;;;-0.20;99.90;;;;;;5037674;28;20044;-73
2023/01/08 05:23:09;;;;;;;303.75;131.48;;;-0.20;99.90;;;;;;5037526;28;20041;-73
2023/01/08 05:25:35;;;;;;;317.17;133.18;;;-0.20;99.90;;;;;;5037241;28;20112;-73
2023/01/08 05:28:01;;;;;;;317.67;131.70;;;-0.20;99.90;;;;;;5036098;28;20474;-73
2023/01/08 05:30:27;;;;;;;350.27;139.75;;;-0.10;99.90;;;;;;5042298;28;20016;-73
2023/01/08 05:32:53;;;;;;;304.58;131.27;;;0.00;99.90;;;;;;5057129;28;20096;-73
2023/01/08 05:35:18;;;;;;;277.17;124.00;;;0.20;99.90;;;;;;5056072;28;20037;-73
2023/01/08 05:37:46;;;;;;;231.50;106.43;;;0.20;99.90;;;;;;5057230;28;20021;-73
2023/01/08 05:40:11;;;;;;;230.85;104.03;;;0.20;99.90;;;;;;5057274;28;20096;-73
2023/01/08 05:42:37;;;;;;;223.38;105.72;;;0.10;99.90;;;;;;5056014;28;20061;-73
2023/01/08 05:45:05;;;;;;;219.30;103.63;;;-0.10;99.90;;;;;;5055497;28;20059;-73
2023/01/08 05:47:32;;;;;;;236.45;104.55;;;-0.20;99.90;;;;;;5056956;28;20025;-73
2023/01/08 05:49:58;;;;;;;221.38;103.03;;;-0.30;99.90;;;;;;5057056;28;20199;-73
2023/01/08 05:52:24;;;;;;;243.02;106.50;;;-0.30;99.90;;;;;;5056787;28;20029;-73
2023/01/08 05:54:50;;;;;;;244.73;108.72;;;-0.30;99.90;;;;;;5056681;28;20491;-73
2023/01/08 05:57:16;;;;;;;236.02;107.70;;;-0.30;99.90;;;;;;5056841;28;20043;-73
2023/01/08 05:59:42;;;;;;;241.65;107.70;;;-0.30;99.90;;;;;;5056739;28;20055;-72
2023/01/08 06:02:08;;;;;;;248.90;107.63;;;-0.30;99.90;;;;;;5055452;28;20048;-73
2023/01/08 06:04:34;;;;;;;248.43;111.40;;;-0.40;99.90;;;;;;5056779;28;20565;-73
2023/01/08 06:07:00;;;;;;;257.17;108.32;;;-0.40;99.90;;;;;;5056117;28;20126;-73
2023/01/08 06:09:26;;;;;;;248.30;107.88;;;-0.40;99.90;;;;;;5056483;28;20025;-73
2023/01/08 06:11:52;;;;;;;244.75;107.85;;;-0.30;99.90;;;;;;5055325;28;20095;-72
2023/01/08 06:14:18;;;;;;;268.90;113.55;;;-0.40;99.90;;;;;;5056086;28;20047;-73
2023/01/08 06:16:44;;;;;;;238.57;102.47;;;-0.30;99.90;;;;;;5056377;28;20095;-73
2023/01/08 06:19:11;;;;;;;434.20;161.00;;;-0.10;99.90;;;;;;5045907;28;20116;-72
2023/01/08 06:21:37;;;;;;;336.83;134.40;;;0.00;99.90;;;;;;5036082;28;20033;-73
2023/01/08 06:24:04;;;;;;;270.70;118.38;;;0.00;99.90;;;;;;5036503;28;20034;-72
2023/01/08 06:26:30;;;;;;;240.68;112.22;;;0.00;99.90;;;;;;5036430;28;20414;-73
2023/01/08 06:28:56;;;;;;;250.80;113.43;;;0.00;99.90;;;;;;5036082;28;20041;-72
2023/01/08 06:31:23;;;;;;;235.52;111.97;;;0.00;99.90;;;;;;5048831;28;20037;-72
2023/01/08 06:33:49;;;;;;;236.63;109.82;;;0.20;99.90;;;;;;5056069;28;20025;-72
2023/01/08 06:36:15;;;;;;;286.30;127.45;;;0.30;99.90;;;;;;5055663;28;20029;-72
2023/01/08 06:38:41;;;;;;;490.98;214.75;;;0.40;99.90;;;;;;5056034;28;20043;-72
2023/01/08 06:41:09;;;;;;;461.90;206.85;;;0.30;99.90;;;;;;5055877;28;20585;-72
2023/01/08 06:43:36;;;;;;;408.00;176.52;;;0.20;99.90;;;;;;5037928;28;20497;-72
2023/01/08 06:46:04;;;;;;;395.00;168.23;;;0.30;99.90;;;;;;5055895;28;20044;-72
2023/01/08 06:48:30;;;;;;;366.00;151.93;;;0.30;99.90;;;;;;5037964;28;20455;-73
2023/01/08 06:50:59;;;;;;;343.38;151.85;;;0.20;99.90;;;;;;5055506;28;20037;-73
2023/01/08 06:53:25;;;;;;;361.75;154.18;;;0.30;99.90;;;;;;5054475;28;20029;-73
2023/01/08 06:55:55;;;;;;;341.10;148.77;;;0.30;99.90;;;;;;5055735;28;20025;-73
2023/01/08 06:58:26;;;;;;;369.38;164.48;;;0.30;99.90;;;;;;5055565;28;20041;-73
2023/01/08 07:00:52;;;;;;;416.90;183.05;;;0.30;99.90;;;;;;5037860;28;20036;-73
2023/01/08 07:03:18;;;;;;;429.58;183.55;;;0.40;99.90;;;;;;5055286;28;20443;-73
2023/01/08 07:05:44;;;;;;;416.88;179.93;;;0.50;99.90;;;;;;5055409;28;20033;-72
2023/01/08 07:08:14;;;;;;;395.23;172.55;;;0.50;99.90;;;;;;5055263;28;20082;-73
2023/01/08 07:10:42;;;;;;;;;;;0.50;99.90;;;;;;5055693;28;20032;-73
2023/01/08 07:13:08;;;;;;;491.40;221.30;;;1.10;99.90;;;;;;5055339;28;20208;-73
2023/01/08 07:15:38;;;;;;;496.52;225.95;;;1.60;99.90;;;;;;5037444;28;20040;-73
2023/01/08 07:18:05;;;;;;;310.52;137.82;;;2.50;99.90;;;;;;5053555;28;20032;-73
2023/01/08 07:20:32;;;;;;;245.48;118.03;;;3.30;99.90;;;;;;5035713;28;20032;-73
2023/01/08 07:23:02;;;;;;;219.90;105.93;;;4.10;99.90;;;;;;5017723;28;20112;-73
2023/01/08 07:25:28;;;;;;;211.07;98.40;;;4.60;99.90;;;;;;5016624;28;20048;-73
2023/01/08 07:27:54;;;;;;;223.50;106.53;;;5.00;99.90;;;;;;5017329;28;20034;-73
2023/01/08 07:30:20;;;;;;;225.23;109.72;;;4.80;99.90;;;;;;5039086;28;20032;-73
2023/01/08 07:32:46;;;;;;;220.43;105.95;;;5.20;99.90;;;;;;5054765;28;20136;-73
2023/01/08 07:35:12;;;;;;;214.35;104.60;;;5.20;99.90;;;;;;5054918;28;20029;-73
2023/01/08 07:37:42;;;;;;;207.07;101.40;;;5.60;99.00;;;;;;5055155;28;20037;-73
2023/01/08 07:40:10;;;;;;;203.40;99.18;;;6.20;98.40;;;;;;5054891;28;20064;-73
2023/01/08 07:42:37;;;;;;;207.35;100.30;;;7.40;95.40;;;;;;5037051;28;20571;-73
2023/01/08 07:45:04;;;;;;;196.43;99.10;;;8.00;89.80;;;;;;5054839;28;20024;-72
2023/01/08 07:47:29;;;;;;;187.05;90.55;;;8.70;86.90;;;;;;5054783;28;20032;-73
2023/01/08 07:49:55;;;;;;;190.30;95.10;;;9.30;81.50;;;;;;5036961;28;20028;-73
2023/01/08 07:52:21;;;;;;;191.07;95.47;;;9.50;77.90;;;;;;5054657;28;20017;-73
2023/01/08 07:54:47;;;;;;;200.32;102.30;;;10.00;75.20;;;;;;5054653;28;20446;-73
2023/01/08 07:57:13;;;;;;;209.15;104.05;;;9.60;76.10;;;;;;5054603;28;20357;-73
2023/01/08 07:59:39;;;;;;;202.43;107.88;;;9.30;79.50;;;;;;5054467;28;20025;-73
2023/01/08 08:02:05;;;;;;;204.55;101.55;;;10.40;76.20;;;;;;5053001;28;20040;-73
2023/01/08 08:04:31;;;;;;;192.50;96.25;;;11.00;70.80;;;;;;5054623;28;20032;-73
2023/01/08 08:06:57;;;;;;;183.55;95.05;;;11.70;68.10;;;;;;5036386;28;20041;-73
2023/01/08 08:09:23;;;;;;;189.40;99.95;;;11.20;67.20;;;;;;5054255;28;20394;-73
2023/01/08 08:11:49;;;;;;;199.82;98.93;;;11.50;63.90;;;;;;5054423;28;20025;-73
2023/01/08 08:14:15;;;;;;;185.10;93.60;;;11.30;67.60;;;;;;5052992;28;20096;-73
2023/01/08 08:16:41;;;;;;;173.13;93.55;;;11.00;69.00;;;;;;5054194;28;20021;-73
2023/01/08 08:19:07;;;;;;;177.48;91.20;;;12.10;66.90;;;;;;5044365;28;20029;-73
2023/01/08 08:21:33;;;;;;;187.55;94.18;;;13.10;60.60;;;;;;5034156;28;20033;-72
2023/01/08 08:23:59;;;;;;;182.20;93.93;;;12.60;62.80;;;;;;5034219;28;20034;-73
2023/01/08 08:26:25;;;;;;;181.07;94.60;;;12.90;60.00;;;;;;5034450;28;20494;-73
2023/01/08 08:28:50;;;;;;;179.75;95.80;;;13.70;57.90;;;;;;5016131;28;20033;-73
2023/01/08 08:31:16;;;;;;;176.13;91.90;;;13.40;57.60;;;;;;5045924;28;20052;-73
2023/01/08 08:33:42;;;;;;;184.73;93.55;;;12.30;59.70;;;;;;5052960;28;20043;-73
2023/01/08 08:36:08;;;;;;;157.27;86.63;;;13.10;60.40;;;;;;5036539;28;20148;-73
2023/01/08 08:38:37;;;;;;;151.75;84.70;;;13.30;58.60;;;;;;5058335;28;20051;-73
2023/01/08 08:41:03;;;;;;;141.23;79.50;;;13.20;58.30;;;;;;5040240;28;20394;-73
2023/01/08 08:43:29;;;;;;;165.68;91.05;;;13.50;59.50;;;;;;5056821;28;20083;-73
2023/01/08 08:45:55;;;;;;;167.18;87.45;;;13.70;57.50;;;;;;5056839;28;20120;-73
2023/01/08 08:48:22;;;;;;;165.57;89.82;;;13.10;59.30;;;;;;5057997;28;20059;-73
2023/01/08 08:50:48;;;;;;;160.77;89.63;;;13.70;58.30;;;;;;5057890;28;20071;-73
2023/01/08 08:53:14;;;;;;;169.45;94.40;;;14.10;57.20;;;;;;5058134;28;20387;-73
2023/01/08 08:55:40;;;;;;;161.93;91.63;;;13.50;57.30;;;;;;5057911;28;20395;-73
2023/01/08 08:58:11;;;;;;;170.68;90.38;;;13.50;58.60;;;;;;5057756;28;20043;-73
2023/01/08 09:00:38;;;;;;;159.98;90.97;;;12.70;59.30;;;;;;5057981;28;20060;-73
2023/01/08 09:03:05;;;;;;;164.02;93.35;;;12.60;61.50;;;;;;5057889;28;20486;-73
2023/01/08 09:05:34;;;;;;;157.75;88.57;;;13.10;61.40;;;;;;5057689;28;20465;-73
2023/01/08 09:08:00;;;;;;;159.07;90.30;;;13.90;59.20;;;;;;5056296;28;20124;-73
2023/01/08 09:10:26;;;;;;;164.25;91.78;;;14.50;57.30;;;;;;5039710;28;20556;-74
2023/01/08 09:12:52;;;;;;;159.18;93.88;;;14.10;58.30;;;;;;5039560;28;20029;-74
2023/01/08 09:15:18;;;;;;;163.77;94.53;;;14.30;58.00;;;;;;5039714;28;20064;-73
2023/01/08 09:17:44;;;;;;;168.10;90.72;;;14.70;56.60;;;;;;5057175;28;20046;-74
2023/01/08 09:20:10;;;;;;;154.05;95.35;;;14.60;56.90;;;;;;5038597;28;20051;-73
2023/01/08 09:22:36;;;;;;;155.32;93.15;;;14.50;57.30;;;;;;5037528;28;20033;-73
2023/01/08 09:25:02;;;;;;;160.18;91.40;;;14.50;58.10;;;;;;5036236;28;20460;-73
2023/01/08 09:27:28;;;;;;;152.68;89.43;;;15.00;56.80;;;;;;5037232;28;20025;-73
2023/01/08 09:29:54;;;;;;;153.02;89.03;;;14.90;55.90;;;;;;5037902;28;20033;-73
2023/01/08 09:32:20;;;;;;;150.23;87.35;;;14.40;57.10;;;;;;5057329;28;20017;-73
2023/01/08 09:34:46;;;;;;;143.63;87.63;;;14.70;56.80;;;;;;5056895;28;20029;-73
2023/01/08 09:37:13;;;;;;;160.73;90.18;;;14.10;58.20;;;;;;5057077;28;20137;-73
2023/01/08 09:39:40;;;;;;;162.02;88.07;;;14.60;58.10;;;;;;5056791;28;20588;-74
2023/01/08 09:42:07;;;;;;;157.57;87.80;;;14.50;58.50;;;;;;5056867;28;20036;-73
2023/01/08 09:44:39;;;;;;;162.95;88.15;;;14.40;60.10;;;;;;5039194;28;20106;-74
2023/01/08 09:47:18;;;;;;;140.88;85.75;;;14.80;58.50;;;;;;5038878;28;20498;-73
2023/01/08 09:49:47;;;;;;;142.57;83.78;;;15.20;57.10;;;;;;5054987;28;20059;-73
2023/01/08 09:52:14;;;;;;;148.25;81.22;;;15.10;57.70;;;;;;5056874;28;20021;-74
2023/01/08 09:54:41;;;;;;;139.52;80.97;;;15.40;57.90;;;;;;5056858;28;20146;-74
2023/01/08 09:57:15;;;;;;;134.73;78.80;;;15.80;56.10;;;;;;5056626;28;20021;-73
2023/01/08 09:59:41;;;;;;;132.32;76.85;;;16.20;55.60;;;;;;5056758;28;20029;-74
2023/01/08 10:02:17;;;;;;;137.82;78.20;;;16.10;54.80;;;;;;5038675;28;20021;-74
2023/01/08 10:04:44;;;;;;;140.68;79.43;;;16.20;55.10;;;;;;5056611;28;20021;-73
2023/01/08 10:07:13;;;;;;;141.38;79.45;;;16.40;54.00;;;;;;5056332;28;20040;-73
2023/01/08 10:09:39;;;;;;;131.50;76.45;;;16.40;54.00;;;;;;5056529;28;20033;-73
2023/01/08 10:12:06;;;;;;;138.25;78.50;;;16.40;54.70;;;;;;5056558;28;20043;-73
2023/01/08 10:14:37;;;;;;;128.95;77.75;;;16.60;54.40;;;;;;5056510;28;20057;-73
2023/01/08 10:17:26;;;;;;;140.45;80.50;;;16.40;54.50;;;;;;5056239;28;20056;-74
2023/01/08 10:19:52;;;;;;;153.90;79.72;;;16.80;54.40;;;;;;5000225;28;20046;-73
2023/01/08 10:22:22;;;;;;;138.70;78.20;;;17.10;53.80;;;;;;5016703;28;20026;-74
2023/01/08 10:24:49;;;;;;;145.15;80.70;;;17.50;51.80;;;;;;5016580;28;20060;-74
2023/01/08 10:27:21;;;;;;;135.55;80.15;;;18.00;51.20;;;;;;4998821;28;20406;-73
2023/01/08 10:29:50;;;;;;;135.25;79.03;;;17.50;52.10;;;;;;5016463;28;20045;-73
2023/01/08 10:32:29;;;;;;;142.05;79.32;;;17.70;51.30;;;;;;5016423;28;20060;-74
2023/01/08 10:34:57;;;;;;;132.32;80.30;;;17.60;51.90;;;;;;5016307;28;20022;-74
2023/01/08 10:37:45;;;;;;;137.13;80.10;;;17.40;52.40;;;;;;5016184;28;20065;-74
2023/01/08 10:40:50;;;;;;;140.55;80.38;;;17.60;52.50;;;;;;5014897;28;20060;-73
2023/01/08 10:43:32;;;;;;;135.23;81.55;;;17.00;53.50;;;;;;5010482;28;20456;-73
2023/01/08 10:46:05;;;;;;;151.85;82.45;;;16.50;54.50;;;;;;4977666;28;20486;-74
2023/01/08 10:48:44;;;;;;;139.07;81.38;;;17.20;54.50;;;;;;4993838;28;20519;-73
2023/01/08 10:51:16;;;;;;;134.57;78.97;;;17.30;53.80;;;;;;4977570;28;20057;-73
2023/01/08 10:53:43;;;;;;;139.75;82.43;;;17.20;53.00;;;;;;4993758;28;20026;-73
2023/01/08 10:56:24;;;;;;;135.70;80.97;;;17.60;53.20;;;;;;4993899;28;20038;-73
2023/01/08 10:58:51;;;;;;;142.55;78.97;;;18.10;52.30;;;;;;4993670;28;20038;-73
2023/01/08 11:01:27;;;;;;;129.73;75.93;;;18.50;51.10;;;;;;4992974;28;20046;-73
2023/01/08 11:04:00;;;;;;;128.98;75.35;;;18.80;50.70;;;;;;4993764;28;20447;-73
2023/01/08 11:06:28;;;;;;;120.25;70.60;;;19.10;50.00;;;;;;4999055;28;20072;-73
2023/01/08 11:09:00;;;;;;;125.13;69.07;;;18.90;49.60;;;;;;5013221;28;20042;-74
2023/01/08 11:11:36;;;;;;;129.45;72.22;;;18.90;49.20;;;;;;5013314;28;20030;-74
2023/01/08 11:14:05;;;;;;;127.45;67.80;;;19.30;48.30;;;;;;5020493;28;20058;-74
2023/01/08 11:16:39;;;;;;;124.78;69.85;;;19.50;48.90;;;;;;5015765;28;20026;-74
2023/01/08 11:19:21;;;;;;;124.05;70.70;;;19.90;48.10;;;;;;5025192;28;20513;-74
2023/01/08 11:21:58;;;;;;;121.18;68.35;;;20.30;46.50;;;;;;5035268;28;20455;-74
2023/01/08 11:24:26;;;;;;;121.10;71.25;;;20.20;46.70;;;;;;5035091;28;20033;-74
2023/01/08 11:27:11;;;;;;;123.20;70.22;;;20.60;45.80;;;;;;5033796;28;20112;-74
2023/01/08 11:30:05;;;;;;;117.47;67.05;;;20.70;44.90;;;;;;5033525;28;20037;-74
2023/01/08 11:32:40;;;;;;;104.97;63.55;;;20.00;45.60;;;;;;5013816;28;20408;-74
2023/01/08 11:35:09;;;;;;;127.07;69.25;;;20.40;46.40;;;;;;5015223;28;20388;-74
2023/01/08 11:37:38;;;;;;;109.22;63.55;;;20.90;45.20;;;;;;5015334;28;20482;-74
2023/01/08 11:40:13;;;;;;;118.90;72.85;;;20.80;45.00;;;;;;5015620;28;20026;-74
2023/01/08 11:42:58;;;;;;;113.50;64.07;;;21.20;44.50;;;;;;5046748;28;20373;-74
2023/01/08 11:46:02;;;;;;;104.35;58.88;;;20.80;45.30;;;;;;5046750;28;20041;-74
2023/01/08 11:48:46;;;;;;;114.35;63.22;;;21.40;42.90;;;;;;5046412;28;20037;-74
2023/01/08 11:51:39;;;;;;;98.50;57.65;;;21.50;43.50;;;;;;5015142;28;20022;-74
2023/01/08 11:54:05;;;;;;;115.53;59.42;;;21.90;41.70;;;;;;5015004;28;20022;-74
2023/01/08 11:57:01;;;;;;;112.68;62.80;;;22.50;40.60;;;;;;5014894;28;20029;-74
2023/01/08 11:59:52;;;;;;;106.30;61.63;;;22.80;40.80;;;;;;5015188;28;20384;-74
2023/01/08 12:02:49;;;;;;;102.80;58.00;;;22.90;39.50;;;;;;5014939;28;20030;-74
2023/01/08 12:05:26;;;;;;;104.18;61.95;;;22.80;39.40;;;;;;5014835;28;20108;-74
2023/01/08 12:08:14;;;;;;;96.57;59.30;;;22.40;39.90;;;;;;5013311;28;20057;-74
2023/01/08 12:11:00;;;;;;;93.47;58.78;;;22.70;39.60;;;;;;5014447;28;20065;-74
2023/01/08 12:13:41;;;;;;;98.05;58.38;;;22.50;40.80;;;;;;5014673;28;20117;-74
2023/01/08 12:16:32;;;;;;;89.43;53.20;;;22.90;39.30;;;;;;5014983;28;20018;-74
2023/01/08 12:19:09;;;;;;;87.47;52.88;;;23.00;38.10;;;;;;5037914;28;20030;-74
2023/01/08 12:21:55;;;;;;;80.60;48.50;;;22.90;38.80;;;;;;5034444;28;20501;-74
2023/01/08 12:24:56;;;;;;;79.72;50.13;;;22.80;38.00;;;;;;5049298;28;20037;-74
2023/01/08 12:27:41;;;;;;;;;;;23.50;38.10;;;;;;5049943;28;20040;-74
2023/01/08 12:30:38;;;;;;;79.18;46.38;;;23.70;37.10;;;;;;5034265;28;19921;-74
2023/01/08 12:33:10;;;;;;;81.85;48.75;;;23.90;37.40;;;;;;5032802;28;20029;-74